Ship Status Report: callsign BATFR34

sailwx.info

Track history (hours):
 
Tides and Currents Weather Stations Pressure Air Temp Water Temp Dewpoint Dewpoint Depression Visibility Wind Speed Wind Dir Waves Ship Positions

Callsign BATFR34 (name unknown)

Last reported at 2015-May-03 17:00 UTC. Time now 2015-May-03 17:54 UTC.
Position N 47°54' W 006°36'.

Wind from 210 at 18 knots

Barometer 1002.3 mb
Water temperature 14.4 ° C

Date/timePositionNaut miles runAvg speedWind from/ knotsBaromVisibWave heightAir tempDewpointWater temp
2015-May-03 17:00N 47°54' W 006°36'6 3.0 210 / 181002.3 14.4
2015-May-03 15:00N 47°48' W 006°36'0 0.0 260 / 221001.5 14.4
2015-May-03 14:00N 47°48' W 006°36'7 7.2 230 / 171001.7 14.4
2015-May-03 13:00N 47°42' W 006°42'0 0.0 240 / 181001.6 14.4
2015-May-03 12:00N 47°42' W 006°42'7 0.5 210 / 151001.7 14.4
2015-May-02 20:00N 47°36' W 006°48'4 4.0 190 / 13998.8 14.2
2015-May-02 19:00N 47°36' W 006°42'4 4.0 250 / 17999.1 14.2
2015-May-02 18:00N 47°36' W 006°48'4 4.0 240 / 14999.2 14.2
2015-May-02 17:00N 47°36' W 006°54'0 0.0 240 / 17999.7 14.2
2015-May-02 16:00N 47°36' W 006°54'7 7.2 230 / 14999.1 14.0
2015-May-02 15:00N 47°42' W 007°00'7 3.6 230 / 13999.7 14.0
2015-May-02 13:00N 47°36' W 007°06'4 4.0 260 / 20999.5 13.9
2015-May-02 12:00N 47°36' W 007°00'0 0.0 250 / 17999.5 14.0
2015-May-02 11:00N 47°36' W 007°00'20 0.9 250 / 17999.8 14.0
2015-May-01 12:00N 47°48' W 007°24'0 0.0 290 / 141005.3 14.0
2015-May-01 11:00N 47°48' W 007°24'6 6.0 270 / 171004.9 14.0
2015-May-01 10:00N 47°42' W 007°24'4 4.0 260 / 171004.4 14.2
2015-May-01 09:00N 47°42' W 007°18'0 0.0 260 / 111003.5 14.0
2015-May-01 08:00N 47°42' W 007°18'6 6.0 240 / 131003.0 14.2
2015-May-01 07:00N 47°36' W 007°18'14 0.8 250 / 111002.3 14.4
2015-Apr-30 13:00N 47°42' W 007°00'7 7.2 100 / 101011.6 14.2
2015-Apr-30 12:00N 47°36' W 006°54'12 0.6 100 / 101011.9 14.0
2015-Apr-29 14:00N 47°36' W 006°36'17 0.8 260 / 111017.7 13.9
2015-Apr-28 15:00N 47°30' W 006°12'0 0.0 230 / 61022.5 14.5
2015-Apr-28 14:00N 47°30' W 006°12'7 7.2 230 / 51023.0 14.4
2015-Apr-28 13:00N 47°36' W 006°18'6 6.0 260 / 51023.2 14.5
2015-Apr-28 12:00N 47°30' W 006°18'4 4.1 260 / 51023.6 14.2
2015-Apr-28 11:00N 47°30' W 006°12'6 6.0 310 / 51023.7 14.0
2015-Apr-28 10:00N 47°24' W 006°12'0 0.0 320 / 51023.5 13.9
2015-Apr-27 21:00N 47°24' W 006°12'4 4.1 1019.8 14.0
2015-Apr-27 20:00N 47°24' W 006°06'0 0.0 290 / 131019.2 13.9
2015-Apr-27 19:00N 47°24' W 006°06'0 0.0 320 / 151018.6 14.2
2015-Apr-27 18:00N 47°24' W 006°06'7 7.2 300 / 151018.3 14.2
2015-Apr-27 17:00N 47°30' W 006°00'4 4.1 300 / 121018.0 14.2
2015-Apr-27 16:00N 47°30' W 005°54'8 8.1 300 / 151017.5 14.4
2015-Apr-27 15:00N 47°30' W 005°42'1413.5 310 / 121017.1 14.5
2015-Apr-27 14:00N 47°36' W 005°24'8 8.1 340 / 141016.6 14.9
2015-Apr-27 13:00N 47°36' W 005°12'8 8.1 350 / 161015.8 14.9
2015-Apr-27 12:00N 47°36' W 005°00'1010.1 1015.2 14.9
2015-Apr-27 11:00N 47°42' W 004°48'8 8.1 360 / 151014.7 14.9
2015-Apr-27 10:00N 47°42' W 004°36'1010.1 1014.1 14.7
2015-Apr-27 09:00N 47°48' W 004°24'   010 / 131013.1 14.7
Track history (hours):
 
Tides and Currents Weather Stations Pressure Air Temp Water Temp Dewpoint Dewpoint Depression Visibility Wind Speed Wind Dir Waves Ship Positions

Callsign BATFR34 (name unknown)

Last reported at 2015-May-03 17:00 UTC. Time now 2015-May-03 17:54 UTC.
Position N 47°54' W 006°36'.

Wind from 210 at 18 knots

Barometer 1002.3 mb
Water temperature 14.4 ° C

Date/timePositionNaut miles runAvg speedWind from/ knotsBaromVisibWave heightAir tempDewpointWater temp
2015-May-03 17:00N 47°54' W 006°36'6 3.0 210 / 181002.3 14.4
2015-May-03 15:00N 47°48' W 006°36'0 0.0 260 / 221001.5 14.4
2015-May-03 14:00N 47°48' W 006°36'7 7.2 230 / 171001.7 14.4
2015-May-03 13:00N 47°42' W 006°42'0 0.0 240 / 181001.6 14.4
2015-May-03 12:00N 47°42' W 006°42'7 0.5 210 / 151001.7 14.4
2015-May-02 20:00N 47°36' W 006°48'4 4.0 190 / 13998.8 14.2
2015-May-02 19:00N 47°36' W 006°42'4 4.0 250 / 17999.1 14.2
2015-May-02 18:00N 47°36' W 006°48'4 4.0 240 / 14999.2 14.2
2015-May-02 17:00N 47°36' W 006°54'0 0.0 240 / 17999.7 14.2
2015-May-02 16:00N 47°36' W 006°54'7 7.2 230 / 14999.1 14.0
2015-May-02 15:00N 47°42' W 007°00'7 3.6 230 / 13999.7 14.0
2015-May-02 13:00N 47°36' W 007°06'4 4.0 260 / 20999.5 13.9
2015-May-02 12:00N 47°36' W 007°00'0 0.0 250 / 17999.5 14.0
2015-May-02 11:00N 47°36' W 007°00'20 0.9 250 / 17999.8 14.0
2015-May-01 12:00N 47°48' W 007°24'0 0.0 290 / 141005.3 14.0
2015-May-01 11:00N 47°48' W 007°24'6 6.0 270 / 171004.9 14.0
2015-May-01 10:00N 47°42' W 007°24'4 4.0 260 / 171004.4 14.2
2015-May-01 09:00N 47°42' W 007°18'0 0.0 260 / 111003.5 14.0
2015-May-01 08:00N 47°42' W 007°18'6 6.0 240 / 131003.0 14.2
2015-May-01 07:00N 47°36' W 007°18'14 0.8 250 / 111002.3 14.4
2015-Apr-30 13:00N 47°42' W 007°00'7 7.2 100 / 101011.6 14.2
2015-Apr-30 12:00N 47°36' W 006°54'12 0.6 100 / 101011.9 14.0
2015-Apr-29 14:00N 47°36' W 006°36'17 0.8 260 / 111017.7 13.9
2015-Apr-28 15:00N 47°30' W 006°12'0 0.0 230 / 61022.5 14.5
2015-Apr-28 14:00N 47°30' W 006°12'7 7.2 230 / 51023.0 14.4
2015-Apr-28 13:00N 47°36' W 006°18'6 6.0 260 / 51023.2 14.5
2015-Apr-28 12:00N 47°30' W 006°18'4 4.1 260 / 51023.6 14.2
2015-Apr-28 11:00N 47°30' W 006°12'6 6.0 310 / 51023.7 14.0
2015-Apr-28 10:00N 47°24' W 006°12'0 0.0 320 / 51023.5 13.9
2015-Apr-27 21:00N 47°24' W 006°12'4 4.1 1019.8 14.0
2015-Apr-27 20:00N 47°24' W 006°06'0 0.0 290 / 131019.2 13.9
2015-Apr-27 19:00N 47°24' W 006°06'0 0.0 320 / 151018.6 14.2
2015-Apr-27 18:00N 47°24' W 006°06'7 7.2 300 / 151018.3 14.2
2015-Apr-27 17:00N 47°30' W 006°00'4 4.1 300 / 121018.0 14.2
2015-Apr-27 16:00N 47°30' W 005°54'8 8.1 300 / 151017.5 14.4
2015-Apr-27 15:00N 47°30' W 005°42'1413.5 310 / 121017.1 14.5
2015-Apr-27 14:00N 47°36' W 005°24'8 8.1 340 / 141016.6 14.9
2015-Apr-27 13:00N 47°36' W 005°12'8 8.1 350 / 161015.8 14.9
2015-Apr-27 12:00N 47°36' W 005°00'1010.1 1015.2 14.9
2015-Apr-27 11:00N 47°42' W 004°48'8 8.1 360 / 151014.7 14.9
2015-Apr-27 10:00N 47°42' W 004°36'1010.1 1014.1 14.7
2015-Apr-27 09:00N 47°48' W 004°24'   010 / 131013.1 14.7

Dump ship's entire track history